Hauptseite
METAR-TAF:

METAR-TAF

Flughäfen :

Wallis, Frankreich

Flughafen Wallis Hihifo

Breite: 13-14S, Länge: 176-10W, Höhe: 23 m

METAR: fehlend

Zeit: 15:14 (03:14 UTC)

Prognose

Neuester Wetterbericht von vor 4 Stunden und 14 Minuten, um 23:00 UTC
Gültige Prognose vom 19 um 00 UTC bis 19 um 24 UTC
Wind 12 kt aus Ost
Sichtweite 10 km oder mehr
Aufgelockert bewölkt in der Höhe von 2500 ft
Zeitweise
vom 19 um 14 UTC bis 19 um 24 UTC
Wind 15 kt aus unterschiedlichen Richtungen, Böen bis zu 25 kt
Sichtweite: 1000 m
Durchbrochene Bewölkung in der Höhe von 1200 ft
Durchbrochene Bewölkung in der Höhe von 2000 ft, Kumulonimbus.
Gewitter, Starkregen

TAF: NLWW 182300Z 1900/1924 10012KT 9999 SCT025 TEMPO 1914/1924 VRB15G25KT 1000 +TSRA BKN012 BKN020CB

Wetterbeobachtungen und Prognosen von mehr als 4000 Flughäfen (METAR und TAF Bericht).

Die verfügbaren Stationen werden durch gelbe und rote Markierungen auf der Karte dargestellt.

Führen Sie die Maus auf sie, um den Namen der Station zu sehen.

Darauf klicken, um die Beobachtung von Wetterbeobachtungen und Prognosen zu sehen.

Um die Karte zu ändern : klicken Sie auf den grünen Tasten mit einem schwarzen Kreuz Zum Vergrößern, auf den grünen Button mit einem Gedankenstrich zu verkleinern, oder auf die grünen Pfeile für benachbarte Karten.


METAR-TAF: